createdAt,value
2022-11-23T00:03:07.435Z,100252.50
2022-11-23T00:06:30.646Z,100255.06
2022-11-23T00:09:52.175Z,100255.25
2022-11-23T00:13:13.935Z,100257.88
2022-11-23T00:16:36.965Z,100251.75
2022-11-23T00:19:58.571Z,100250.06
2022-11-23T00:23:21.713Z,100243.31
2022-11-23T00:26:43.318Z,100243.31
2022-11-23T00:30:05.762Z,100247.91
2022-11-23T00:33:27.447Z,100241.81
2022-11-23T00:36:49.267Z,100229.59
2022-11-23T00:40:13.777Z,100225.28
2022-11-23T00:43:35.465Z,100225.28
2022-11-23T00:46:57.138Z,100234.19
2022-11-23T00:50:19.074Z,100232.50
2022-11-23T00:53:41.183Z,100243.19
2022-11-23T00:57:04.752Z,100239.00
2022-11-23T01:00:26.455Z,100249.69
2022-11-23T01:03:50.663Z,100248.84
2022-11-23T01:07:12.333Z,100257.78
2022-11-23T01:10:35.372Z,100255.16
2022-11-23T01:13:58.715Z,100261.34
2022-11-23T01:17:21.010Z,100275.25
2022-11-23T01:20:42.743Z,100263.97
2022-11-23T01:24:06.394Z,100271.84
2022-11-23T01:27:28.237Z,100267.34
2022-11-23T01:30:51.448Z,100262.09
2022-11-23T01:34:14.502Z,100256.91
2022-11-23T01:37:36.310Z,100262.94
2022-11-23T01:40:58.172Z,100251.56
2022-11-23T01:44:29.671Z,100253.25
2022-11-23T01:47:52.985Z,100253.34
2022-11-23T01:51:17.483Z,100260.41
2022-11-23T01:54:45.027Z,100267.44
2022-11-23T01:58:10.079Z,100281.63
2022-11-23T02:01:32.960Z,100283.50
2022-11-23T02:04:58.242Z,100282.63
2022-11-23T02:08:20.670Z,100287.97
2022-11-23T02:11:42.206Z,100290.59
2022-11-23T02:15:07.950Z,100290.59
2022-11-23T02:18:32.603Z,100291.53
2022-11-23T02:21:57.289Z,100283.50
2022-11-23T02:25:28.996Z,100276.38
2022-11-23T02:28:56.157Z,100277.88
2022-11-23T02:32:23.102Z,100265.47
2022-11-23T02:35:51.230Z,100272.44
2022-11-23T02:39:16.830Z,100273.25
2022-11-23T02:42:40.057Z,100275.88
2022-11-23T02:46:05.562Z,100271.50
2022-11-23T02:49:27.451Z,100278.31
2022-11-23T02:52:49.412Z,100275.63
2022-11-23T02:56:10.949Z,100276.44
2022-11-23T02:59:34.293Z,100277.19
2022-11-23T03:02:57.560Z,100280.69
2022-11-23T03:06:19.473Z,100286.69
2022-11-23T03:09:42.862Z,100284.94
2022-11-23T03:13:04.783Z,100290.00
2022-11-23T03:16:30.376Z,100285.69
2022-11-23T03:19:55.682Z,100286.63
2022-11-23T03:23:18.786Z,100287.47
2022-11-23T03:26:40.654Z,100290.09
2022-11-23T03:30:06.091Z,100305.03
2022-11-23T03:33:29.586Z,100290.19
2022-11-23T03:36:53.387Z,100286.69
2022-11-23T03:40:15.585Z,100289.34
2022-11-23T03:43:56.210Z,100285.56
2022-11-23T03:47:18.126Z,100289.06
2022-11-23T03:50:39.674Z,100278.53
2022-11-23T03:54:03.646Z,100282.00
2022-11-23T03:57:25.383Z,100273.38
2022-11-23T04:00:47.371Z,100278.63
2022-11-23T04:04:10.359Z,100280.44
2022-11-23T04:07:52.295Z,100276.09
2022-11-23T04:11:15.445Z,100275.25
2022-11-23T04:14:41.661Z,100274.56
2022-11-23T04:18:03.683Z,100278.06
2022-11-23T04:21:26.938Z,100292.16
2022-11-23T04:24:48.819Z,100293.09
2022-11-23T04:28:12.759Z,100298.53
2022-11-23T04:31:34.896Z,100292.41
2022-11-23T04:35:16.993Z,100288.84
2022-11-23T04:38:41.790Z,100292.34
2022-11-23T04:42:04.223Z,100291.41
2022-11-23T04:45:28.171Z,100297.59
2022-11-23T04:48:53.029Z,100288.00
2022-11-23T04:52:15.315Z,100285.38
2022-11-23T04:55:42.020Z,100304.91
2022-11-23T04:59:05.278Z,100305.00
2022-11-23T05:02:29.139Z,100297.97
2022-11-23T05:06:10.979Z,100298.81
2022-11-23T05:09:36.860Z,100296.16
2022-11-23T05:13:06.878Z,100300.59
2022-11-23T05:16:28.710Z,100299.66
2022-11-23T05:19:51.698Z,100294.47
2022-11-23T05:23:14.987Z,100299.91
2022-11-23T05:26:38.957Z,100297.41
2022-11-23T05:30:01.086Z,100298.22
2022-11-23T05:33:23.012Z,100292.13
2022-11-23T05:36:46.334Z,100288.66
2022-11-23T05:40:10.506Z,100286.97
2022-11-23T05:43:32.837Z,100287.03
2022-11-23T05:46:54.738Z,100290.59
2022-11-23T05:50:16.966Z,100297.56
2022-11-23T05:53:42.193Z,100295.03
2022-11-23T05:57:26.798Z,100295.88
2022-11-23T06:00:48.389Z,100303.84
2022-11-23T06:04:13.519Z,100302.06
2022-11-23T06:07:39.892Z,100312.00
2022-11-23T06:11:07.506Z,100300.72
2022-11-23T06:14:29.321Z,100300.72
2022-11-23T06:17:52.931Z,100306.94
2022-11-23T06:21:17.010Z,100314.06
2022-11-23T06:24:40.247Z,100308.97
2022-11-23T06:28:22.506Z,100316.13
2022-11-23T06:31:45.498Z,100308.22
2022-11-23T06:35:08.363Z,100309.91
2022-11-23T06:38:34.190Z,100309.84
2022-11-23T06:42:16.870Z,100312.56
2022-11-23T06:45:42.722Z,100319.50
2022-11-23T06:49:09.125Z,100314.44
2022-11-23T06:52:32.047Z,100318.66
2022-11-23T06:55:54.086Z,100326.63
2022-11-23T06:59:16.599Z,100330.00
2022-11-23T07:02:40.311Z,100336.22
2022-11-23T07:06:06.253Z,100338.84
2022-11-23T07:09:29.264Z,100332.91
2022-11-23T07:13:11.380Z,100338.34
2022-11-23T07:16:32.898Z,100347.25
2022-11-23T07:19:57.702Z,100355.91
2022-11-23T07:23:20.389Z,100342.75
2022-11-23T07:26:42.706Z,100348.94
2022-11-23T07:30:05.266Z,100350.72
2022-11-23T07:33:27.161Z,100366.59
2022-11-23T07:36:50.591Z,100359.66
2022-11-23T07:40:13.009Z,100361.34
2022-11-23T07:43:34.710Z,100363.97
2022-11-23T07:46:57.282Z,100364.13
2022-11-23T07:50:19.310Z,100368.53
2022-11-23T07:53:42.293Z,100375.47
2022-11-23T07:57:03.924Z,100369.41
2022-11-23T08:00:27.150Z,100370.16
2022-11-23T08:03:50.030Z,100370.91
2022-11-23T08:07:12.146Z,100376.06
2022-11-23T08:10:40.162Z,100379.56
2022-11-23T08:14:05.349Z,100379.56
2022-11-23T08:17:27.316Z,100382.19
2022-11-23T08:20:49.177Z,100386.50
2022-11-23T08:24:11.407Z,100388.19
2022-11-23T08:27:34.523Z,100384.47
2022-11-23T08:30:56.594Z,100369.38
2022-11-23T08:34:19.314Z,100382.34
2022-11-23T08:37:41.471Z,100387.50
2022-11-23T08:41:05.452Z,100389.09
2022-11-23T08:44:28.777Z,100389.88
2022-11-23T08:47:50.919Z,100389.88
2022-11-23T08:51:13.372Z,100383.75
2022-11-23T08:54:35.359Z,100393.31
2022-11-23T08:57:57.218Z,100399.53
2022-11-23T09:01:20.445Z,100394.25
2022-11-23T09:04:43.209Z,100400.28
2022-11-23T09:08:05.287Z,100401.97
2022-11-23T09:11:27.146Z,100405.63
2022-11-23T09:14:49.148Z,100404.78
2022-11-23T09:18:12.739Z,100405.63
2022-11-23T09:21:35.774Z,100409.84
2022-11-23T09:24:57.791Z,100402.84
2022-11-23T09:28:19.736Z,100404.44
2022-11-23T09:31:42.728Z,100403.41
2022-11-23T09:35:07.221Z,100401.53
2022-11-23T09:38:54.647Z,100393.56
2022-11-23T09:42:34.872Z,100394.50
2022-11-23T09:45:59.725Z,100382.13
2022-11-23T09:49:22.229Z,100381.19
2022-11-23T09:52:49.265Z,100383.06
2022-11-23T09:56:18.736Z,100380.44
2022-11-23T09:59:43.182Z,100386.44
2022-11-23T10:03:05.155Z,100388.13
2022-11-23T10:06:29.203Z,100385.22
2022-11-23T10:10:05.330Z,100386.06
2022-11-23T10:13:36.630Z,100373.69
2022-11-23T10:17:03.915Z,100378.00
2022-11-23T10:20:57.204Z,100386.56
2022-11-23T10:24:22.377Z,100380.38
2022-11-23T10:27:47.767Z,100376.63
2022-11-23T10:31:15.281Z,100386.22
2022-11-23T10:34:50.070Z,100390.53
2022-11-23T10:38:18.360Z,100385.34
2022-11-23T10:41:40.942Z,100386.09
2022-11-23T10:45:05.744Z,100376.34
2022-11-23T10:48:36.314Z,100373.53
2022-11-23T10:52:00.006Z,100376.81
2022-11-23T10:55:27.540Z,100367.06
2022-11-23T10:58:49.851Z,100374.88
2022-11-23T11:02:21.092Z,100377.31
2022-11-23T11:06:08.577Z,100366.59
2022-11-23T11:09:32.416Z,100376.75
2022-11-23T11:12:54.439Z,100374.78
2022-11-23T11:16:22.042Z,100369.25
2022-11-23T11:19:45.195Z,100367.16
2022-11-23T11:27:53.355Z,100362.19
2022-11-23T11:31:25.806Z,100352.22
2022-11-23T11:34:53.222Z,100354.56
2022-11-23T11:38:19.467Z,100350.88
2022-11-23T11:41:43.262Z,100353.44
2022-11-23T11:45:08.727Z,100341.31
2022-11-23T11:48:36.882Z,100346.50
2022-11-23T11:52:08.759Z,100344.78
2022-11-23T11:55:37.528Z,100340.56
2022-11-23T11:59:07.248Z,100342.34
2022-11-23T12:02:34.898Z,100346.56
2022-11-23T12:06:05.107Z,100350.81
2022-11-23T12:09:33.155Z,100354.28
2022-11-23T12:12:56.748Z,100363.03
2022-11-23T12:16:28.743Z,100349.94
2022-11-23T12:19:56.917Z,100347.13
2022-11-23T12:23:33.415Z,100354.09
2022-11-23T12:27:03.811Z,100354.84
2022-11-23T12:30:31.991Z,100356.44
2022-11-23T12:34:08.840Z,100357.09
2022-11-23T12:37:44.493Z,100349.94
2022-11-23T12:41:23.337Z,100349.75
2022-11-23T12:45:07.490Z,100351.53
2022-11-23T12:48:42.322Z,100347.94
2022-11-23T12:52:16.802Z,100351.44
2022-11-23T12:55:50.613Z,100360.09
2022-11-23T12:59:14.414Z,100356.31
2022-11-23T13:03:19.519Z,100355.50
2022-11-23T13:07:27.658Z,100364.03
2022-11-23T13:10:57.353Z,100371.75
2022-11-23T13:14:33.233Z,100361.19
2022-11-23T13:18:01.970Z,100345.38
2022-11-23T13:21:31.933Z,100351.53
2022-11-23T13:25:22.761Z,100348.97
2022-11-23T13:28:45.076Z,100342.88
2022-11-23T13:32:35.075Z,100355.19
2022-11-23T13:36:09.217Z,100352.47
2022-11-23T13:39:57.451Z,100346.25
2022-11-23T13:43:23.334Z,100347.94
2022-11-23T13:46:46.210Z,100354.72
2022-11-23T13:50:19.625Z,100360.81
2022-11-23T13:53:44.275Z,100358.09
2022-11-23T13:57:14.435Z,100353.56
2022-11-23T14:00:47.851Z,100365.78
2022-11-23T14:04:23.016Z,100363.16
2022-11-23T14:07:46.501Z,100365.72
2022-11-23T14:11:13.671Z,100356.94
2022-11-23T14:14:52.887Z,100372.66
2022-11-23T14:18:51.111Z,100373.50
2022-11-23T14:22:23.627Z,100368.22
2022-11-23T14:25:55.091Z,100373.50
2022-11-23T14:29:28.683Z,100374.44
2022-11-23T14:33:04.520Z,100368.22
2022-11-23T14:36:50.536Z,100370.97
2022-11-23T14:40:23.288Z,100376.25
2022-11-23T14:43:46.991Z,100381.69
2022-11-23T14:47:11.981Z,100387.81
2022-11-23T14:50:35.171Z,100380.84
2022-11-23T14:54:00.199Z,100384.44
2022-11-23T14:57:24.037Z,100391.59
2022-11-23T15:00:47.951Z,100384.63
2022-11-23T15:04:24.533Z,100385.47
2022-11-23T15:07:52.854Z,100389.91
2022-11-23T15:11:21.208Z,100378.41
2022-11-23T15:14:44.672Z,100387.16
2022-11-23T15:18:06.408Z,100381.06
2022-11-23T15:21:30.270Z,100392.41
2022-11-23T15:24:52.627Z,100400.25
2022-11-23T15:28:18.339Z,100396.84
2022-11-23T15:31:50.267Z,100404.75
2022-11-23T15:35:24.143Z,100405.50
2022-11-23T15:38:47.323Z,100407.28
2022-11-23T15:42:16.513Z,100410.97
2022-11-23T15:46:00.722Z,100415.38
2022-11-23T15:49:22.234Z,100413.63
2022-11-23T15:52:44.378Z,100417.06
2022-11-23T15:56:22.598Z,100419.81
2022-11-23T15:59:46.897Z,100415.50
2022-11-23T16:03:30.106Z,100415.50
2022-11-23T16:06:52.049Z,100418.03
2022-11-23T16:10:19.058Z,100419.81
2022-11-23T16:13:41.632Z,100424.16
2022-11-23T16:17:07.394Z,100424.16
2022-11-23T16:20:30.690Z,100422.34
2022-11-23T16:23:56.222Z,100422.34
2022-11-23T16:27:24.915Z,100416.25
2022-11-23T16:30:47.961Z,100425.84
2022-11-23T16:34:17.707Z,100420.56
2022-11-23T16:37:39.582Z,100431.00
2022-11-23T16:41:01.540Z,100432.81
2022-11-23T16:44:23.502Z,100432.81
2022-11-23T16:47:55.205Z,100432.88
2022-11-23T16:51:16.814Z,100440.72
2022-11-23T16:54:38.735Z,100448.63
2022-11-23T16:58:01.001Z,100441.53
2022-11-23T17:01:25.662Z,100452.94
2022-11-23T17:04:49.029Z,100459.03
2022-11-23T17:08:10.632Z,100457.34
2022-11-23T17:11:32.537Z,100452.94
2022-11-23T17:14:54.567Z,100455.66
2022-11-23T17:18:17.519Z,100447.66
2022-11-23T17:21:40.813Z,100445.97
2022-11-23T17:25:02.453Z,100448.50
2022-11-23T17:28:24.511Z,100452.94
2022-11-23T17:31:46.476Z,100447.88
2022-11-23T17:35:09.381Z,100443.22
2022-11-23T17:38:33.471Z,100442.41
2022-11-23T17:42:01.566Z,100439.03
2022-11-23T17:45:26.103Z,100445.03
2022-11-23T17:48:49.610Z,100452.06
2022-11-23T17:52:12.535Z,100447.66
2022-11-23T17:55:35.922Z,100449.44
2022-11-23T17:58:57.821Z,100440.72
2022-11-23T18:02:20.028Z,100449.44
2022-11-23T18:05:41.889Z,100442.41
2022-11-23T18:09:04.455Z,100455.56
2022-11-23T18:12:27.698Z,100453.88
2022-11-23T18:15:49.342Z,100470.72
2022-11-23T18:19:11.418Z,100468.84
2022-11-23T18:22:33.405Z,100465.38
2022-11-23T18:26:02.510Z,100470.63
2022-11-23T18:29:25.736Z,100459.03
2022-11-23T18:32:47.863Z,100458.22
2022-11-23T18:36:11.182Z,100462.53
2022-11-23T18:39:33.043Z,100449.38
2022-11-23T18:42:54.695Z,100465.91
2022-11-23T18:46:19.470Z,100464.22
2022-11-23T18:49:41.482Z,100459.91
2022-11-23T18:53:03.139Z,100457.94
2022-11-23T18:56:25.036Z,100459.78
2022-11-23T18:59:57.990Z,100459.16
2022-11-23T19:03:21.302Z,100459.03
2022-11-23T19:06:42.919Z,100462.63
2022-11-23T19:10:05.081Z,100467.88
2022-11-23T19:13:26.847Z,100475.03
2022-11-23T19:16:48.848Z,100487.28
2022-11-23T19:20:12.758Z,100483.06
2022-11-23T19:23:34.597Z,100494.44
2022-11-23T19:26:56.478Z,100486.53
2022-11-23T19:30:18.528Z,100492.66
2022-11-23T19:33:40.843Z,100490.84
2022-11-23T19:37:04.269Z,100492.66
2022-11-23T19:40:25.962Z,100502.34
2022-11-23T19:43:47.380Z,100501.59
2022-11-23T19:47:15.336Z,100511.28
2022-11-23T19:50:39.622Z,100510.34
2022-11-23T19:54:03.206Z,100510.53
2022-11-23T19:57:24.915Z,100499.06
2022-11-23T20:00:46.706Z,100506.03
2022-11-23T20:04:10.053Z,100507.91
2022-11-23T20:07:32.521Z,100518.44
2022-11-23T20:10:56.311Z,100518.63
2022-11-23T20:14:18.293Z,100515.13
2022-11-23T20:17:39.895Z,100521.34
2022-11-23T20:21:02.339Z,100522.28
2022-11-23T20:24:24.144Z,100526.72
2022-11-23T20:27:47.448Z,100532.00
2022-11-23T20:31:19.648Z,100531.19
2022-11-23T20:34:41.919Z,100530.44
2022-11-23T20:38:04.997Z,100530.44
2022-11-23T20:41:28.155Z,100535.72
2022-11-23T20:44:51.371Z,100545.41
2022-11-23T20:48:13.390Z,100536.59
2022-11-23T20:51:35.507Z,100537.41
2022-11-23T20:54:57.422Z,100533.94
2022-11-23T20:58:19.178Z,100534.88
2022-11-23T21:01:42.588Z,100541.94
2022-11-23T21:05:04.734Z,100535.81
2022-11-23T21:08:34.286Z,100541.94
2022-11-23T21:12:13.597Z,100541.94
2022-11-23T21:15:35.203Z,100543.81
2022-11-23T21:18:58.519Z,100545.59
2022-11-23T21:22:20.151Z,100545.69
2022-11-23T21:25:42.024Z,100549.19
2022-11-23T21:29:09.343Z,100554.53
2022-11-23T21:32:30.958Z,100557.16
2022-11-23T21:35:54.128Z,100563.38
2022-11-23T21:39:16.250Z,100562.53
2022-11-23T21:42:38.031Z,100569.56
2022-11-23T21:46:01.047Z,100560.84
2022-11-23T21:49:23.287Z,100577.47
2022-11-23T21:52:46.583Z,100580.97
2022-11-23T21:56:12.038Z,100573.06
2022-11-23T21:59:33.371Z,100577.47
2022-11-23T22:02:55.205Z,100579.28
2022-11-23T22:06:20.644Z,100589.72
2022-11-23T22:09:43.842Z,100593.09
2022-11-23T22:13:05.498Z,100599.13
2022-11-23T22:16:29.418Z,100598.00
2022-11-23T22:19:51.452Z,100594.34
2022-11-23T22:23:14.070Z,100606.59
2022-11-23T22:26:37.342Z,100620.50
2022-11-23T22:29:59.167Z,100615.25
2022-11-23T22:33:20.566Z,100618.75
2022-11-23T22:36:43.142Z,100625.69
2022-11-23T22:40:05.549Z,100628.34
2022-11-23T22:43:28.922Z,100627.47
2022-11-23T22:46:51.109Z,100623.91
2022-11-23T22:50:13.071Z,100626.63
2022-11-23T22:53:35.150Z,100630.97
2022-11-23T22:56:56.850Z,100633.59
2022-11-23T23:00:20.370Z,100634.53
2022-11-23T23:03:42.800Z,100633.69
2022-11-23T23:07:04.625Z,100628.41
2022-11-23T23:10:26.510Z,100635.38
2022-11-23T23:13:48.567Z,100635.38
2022-11-23T23:17:11.642Z,100640.56
2022-11-23T23:20:33.199Z,100648.47
2022-11-23T23:23:57.207Z,100652.22
2022-11-23T23:27:19.110Z,100657.50
2022-11-23T23:30:40.948Z,100652.22
2022-11-23T23:34:03.810Z,100641.59
2022-11-23T23:37:25.702Z,100641.69
2022-11-23T23:40:47.586Z,100641.84
2022-11-23T23:44:09.597Z,100652.31
2022-11-23T23:47:32.201Z,100653.16
2022-11-23T23:50:55.317Z,100654.09
2022-11-23T23:54:17.101Z,100653.25
2022-11-23T23:57:38.701Z,100653.25
